Timeline UpdatesTrip UpdatesNews PostsPvt PostsTravel TipsAdmin PostsConv PostsFollowed PostsChat RequestsBlog PostsPNR Posts

Disclaimer
Search
 
 
Thu Apr 24, 2014 19:04:19 ISTHomeTrainsΣChainsAtlasPNRForumGalleryNewsFAQTripsMembersLoginFeedback
No Recent News for this Train
Other Trains in the News **new
Latest...
Will be short originated from Faizabad from 27/11 to 04/12.
Mon Nov 25, 2013 (01:33PM)
⇐ Return Journey: Train# 54334

54333/Varanasi Lucknow Passenger (UnReserved)

Sep 12 2013 (12:46PM)
Change Departure Station:
Change Arrival Station:
Post a Train Travel TipPost a Train Travel Tip **new
Post a Comment/Question/Picture/VideoPost a Comment/Question/Picture/Video
Pantry/Catering
???
RSA - Rake Sharing
Rake/Coach Composition
Loco
News    PNR    Forum    Time-Table    Availability    Fare Chart    Map    Arr/Dep History    Trips    Gallery    ΣChains    X/O    Timeline    
Travel Time: 7h 26m    35 halts    Distance: 248 km    Avg Speed: 33 km/hr
Type: Passenger
Zone: NR/Northern
Departs @ 04:10 (Avg 11m late)
Platform# 7
SMTWTFS
Varanasi Junction/BSB 
Arrives @ 11:36 (Avg 2h 5m late)
Platform# ???
SMTWTFS
Patranga/PTH 

35 halts. 36 intermediate Stations between Varanasi Junction and Patranga

Show ALL intermediate Stations  Show Old Time-Table

#CodeStation NameX/OArrivesAvgDepartsAvgHaltPFDay#KmSpeedElevZoneAddress
1BSB»Varanasi Junction (9)»  -04:10+11710.03482mNRVaranasi, Uttar Pradesh
2SOPShivpur (3)  04:20+2704:21+271m--15.64881mNRVaranasi, Uttar Pradesh
3BRPTBirapatti (2)X  04:29+2704:30+271m--112.05084mNRRd Varanasi Uttar Pradesh, Uttar Pradesh
4BTPBabatpur (2)X  04:38+2804:39+291m--118.65484mNRSatomahua-Mangari Rd, Uttar Pradesh
5PDRDPindra Road (2)X  04:45+2904:46+291m--124.03981mNRSatomahua-Mangari Rd, Uttar Pradesh
6KSFKhalispur (2)  04:52+2904:53+301m--127.93983mNRPhulpur, Uttar Pradesh
7TLMDTrilochan Mahdo (2)  05:01+2905:02+301m--133.15383mNRNational Highway 56, Uttar Pradesh
8JLLJalalGanj (2)X  05:09+2905:10+341m--139.25187mNRJalalganj Railway Station, Uttar Pradesh
9SIQSarkoni (2)  05:17+3505:18+351m--145.13385mNRBandipur, Uttar Pradesh
10ZBDZafarabad Junction (4)  05:29+3305:30+431m--151.24383mNRNational Highway 56, Uttar Pradesh
11JNUJaunpur Junction (5)  05:39+4405:41+482m--157.73783mNRJaunpur, Uttar Pradesh
12MGWNMahgawan Halt (1)  05:51+5205:52+521m1163.85184mNRDalhanpur, Uttar Pradesh
13MIHMihrawan (1)  05:59+5406:00+581m1169.74988mNRChak Bhavani Shanker, Uttar Pradesh
14MNKNManikalan Halt (1)X  06:07+5606:08+561m1175.54285mNRNawab Yousuf Rd, Uttar Pradesh
15KSKheta Sarai (1)  06:15+5606:16+1:021m1180.43488mNRKheta Sarai, Uttar Pradesh
16SHGShahganj Junction (4)X  06:35+5606:43+578m--191.013290mNRShahganj, Uttar Pradesh
17BWIBilwai (1)X  06:48+1:0506:49+1:081m11102.04891mNRBilwai, Uttar Pradesh
18TLGRTulsi NagarX  06:57+1:0906:58+1:101m--1108.45191mNRNawab Yousuf Rd, Uttar Pradesh
19MLPRMalipur (2)  07:07+1:1107:08+1:161m--1116.05992mNRMalipur, Uttar Pradesh
20JFGJafarganj  07:18+1:1707:19+1:221m--1125.94692mNRNawab Yousuf Rd, Uttar Pradesh
21ABPAkbarpur (2)X  07:31+1:1707:33+1:292m--1135.16392mNRAkbarpur, Uttar Pradesh
22KTHEKatahri  07:44+1:3807:45+1:421m--1146.76495mNRKatehri, Uttar Pradesh
23GGJGoshainGanj (3)  07:55+1:4307:56+1:481m--1157.35698mNRGoshainganj, Uttar Pradesh
24ULNUlna BhariX  08:05+1:4908:06+1:521m--1165.757104mNRNawab Yousuf Rd, Uttar Pradesh
25BLGBilhar Ghat  08:15+1:4808:16+1:521m--1174.254104mNRNawab Yousuf Rd, Uttar Pradesh
26DRGDarshannagar (2)  08:27+1:5508:28+2:001m--1184.127103mNRayodhya, Uttar Pradesh
27AYAyodhya Junction (3)X  08:39+1:5408:40+2:031m--1189.01998mNRAyodhya, Uttar Pradesh
28ACNDAcharya Narendra Dev Nagar  08:54+2:0608:55+2:211m--1193.52104mNRFaizabad, Uttar Pradesh
29FDFaizabad Junction (5)X  10:00+1:2910:13+1:3913m--1195.747104mNRFaizabad, Uttar Pradesh
30SLRPSalarpurX  10:24+1:5010:25+1:531m--1204.444106mNRJaganpur, Uttar Pradesh
31SLWSohwalX  10:34+1:5410:35+1:551m--1211.051107mNRFaizabad Rd, Uttar Pradesh
32DELODeorakot  10:44+1:5710:45+1:571m--1218.735110mNRDewracoat, Uttar Pradesh
33BNMBaragaon  10:55+1:5610:56+1:591m--1224.643115mNRFaizabad Rd, Uttar Pradesh
34GMUGauriyamau  11:02+1:5711:03+1:571m--1228.833108mNRFaizabad Rd, Uttar Pradesh
35RDLRudauli (2)  11:12+1:5711:13+2:011m--1233.833112mNRRudauli, Uttar Pradesh
36RZNRauzagaon  11:23+2:0011:24+2:061m--1239.445111mNRFaizabad Rd, Uttar Pradesh
37PTH•Patranga•  11:36+2:0511:37+2:141m--1248.437113mNRFaizabad Rd, Uttar Pradesh
38DYDDaryabad  11:51+2:1111:52+2:221m--1257.039116mNRFaizabad Rd, Uttar Pradesh
39SYKSaidkhanpur  12:07+2:1812:08+2:201m--1266.738116mNRSaidkhanpur, Uttar Pradesh
40SGJSafdarGanj  12:24+2:1612:25+2:261m--1276.847116mNRFaizabad Rd, Uttar Pradesh
41RESRasauliXO  12:39+2:2212:40+2:271m--1287.73125mNRFaizabad Rd, Uttar Pradesh
42BBKBarabanki Junction (4)  15:09+3115:10+361m--1295.030122mNRPin-225001, Uttar Pradesh
43SFHSafedabad (3)  15:25+2815:26+291m--1302.629120mNRBarabanki, Uttar Pradesh
44JRRJugaur (1)X  15:33+2615:34+261m11306.033123mNRCanal Rd, Uttar Pradesh
45MLMalhaur (3)  15:44+2415:45+371m--1311.524121mNRLucknow, Uttar Pradesh
46LKOLucknow Charbagh (9)  16:15+1:06-41323.4-123mNRCharbagh, Uttar Pradesh
Scroll to Top
Scroll to Bottom